Time;durP1;ratioP1;P1;durP2;ratioP2;P2;SDS_P1;SDS_P2;PMS_P1;PMS_P2;Temp;Humidity;BMP_temperature;BMP_pressure;BME280_temperature;BME280_humidity;BME280_pressure;Samples;Min_cycle;Max_cycle;Signal;HPM_P1;HPM_P2
2023/03/28 00:00:35;;;;;;;10.77;2.40;;;;;;;;;;5068601;28;20287;-60
2023/03/28 00:03:01;;;;;;;12.80;3.13;;;;;;;;;;5068550;28;20337;-60
2023/03/28 00:05:28;;;;;;;18.37;3.93;;;;;;;;;;5068274;28;20848;-60
2023/03/28 00:07:55;;;;;;;12.60;3.57;;;;;;;;;;5068326;28;20290;-60
2023/03/28 00:10:21;;;;;;;22.57;2.47;;;;;;;;;;5054272;28;20370;-60
2023/03/28 00:12:47;;;;;;;19.63;3.90;;;;;;;;;;5048731;28;20291;-61
2023/03/28 00:15:14;;;;;;;16.47;2.60;;;;;;;;;;5047832;28;20286;-60
2023/03/28 00:17:40;;;;;;;18.83;3.37;;;;;;;;;;5048189;28;20661;-60
2023/03/28 00:20:09;;;;;;;17.27;2.43;;;;;;;;;;5047808;28;20283;-61
2023/03/28 00:22:36;;;;;;;19.40;3.53;;;;;;;;;;5048065;28;20291;-60
2023/03/28 00:25:04;;;;;;;20.23;2.67;;;;;;;;;;5048127;28;20879;-60
2023/03/28 00:27:32;;;;;;;11.07;2.50;;;;;;;;;;5048263;28;20382;-60
2023/03/28 00:29:58;;;;;;;14.73;3.00;;;;;;;;;;5048328;28;20773;-60
2023/03/28 00:32:24;;;;;;;17.40;2.27;;;;;;;;;;5047922;28;20288;-60
2023/03/28 00:34:50;;;;;;;22.97;3.07;;;;;;;;;;5048037;28;20816;-60
2023/03/28 00:37:16;;;;;;;14.07;3.40;;;;;;;;;;5049828;28;20282;-60
2023/03/28 00:39:48;;;;;;;19.40;4.37;;;;;;;;;;5051358;28;20280;-61
2023/03/28 00:42:15;;;;;;;14.77;3.87;;;;;;;;;;5051797;28;20957;-60
2023/03/28 00:44:52;;;;;;;13.87;2.33;;;;;;;;;;5052097;28;20685;-60
2023/03/28 00:47:24;;;;;;;13.07;2.30;;;;;;;;;;5061455;28;20295;-60
2023/03/28 00:49:51;;;;;;;17.57;2.20;;;;;;;;;;5071780;28;20809;-60
2023/03/28 00:52:19;;;;;;;12.07;2.87;;;;;;;;;;5071610;28;20894;-60
2023/03/28 00:54:46;;;;;;;25.80;2.73;;;;;;;;;;5071945;28;20286;-61
2023/03/28 00:57:13;;;;;;;15.03;2.73;;;;;;;;;;5072459;28;20649;-60
2023/03/28 00:59:39;;;;;;;16.57;4.13;;;;;;;;;;5071991;28;20782;-60
2023/03/28 01:02:06;;;;;;;17.37;3.10;;;;;;;;;;5071975;28;20290;-60
2023/03/28 01:04:54;;;;;;;22.27;2.87;;;;;;;;;;5070428;28;20302;-60
2023/03/28 01:07:20;;;;;;;17.97;3.47;;;;;;;;;;5071582;28;20290;-60
2023/03/28 01:09:47;;;;;;;17.87;2.30;;;;;;;;;;5056049;28;20642;-60
2023/03/28 01:12:15;;;;;;;14.37;2.77;;;;;;;;;;5045200;28;20303;-60
2023/03/28 01:14:42;;;;;;;16.47;3.73;;;;;;;;;;5050436;28;20300;-60
2023/03/28 01:17:09;;;;;;;10.10;2.37;;;;;;;;;;5050297;28;20318;-60
2023/03/28 01:19:57;;;;;;;15.47;2.70;;;;;;;;;;5051896;28;20310;-60
2023/03/28 01:22:23;;;;;;;16.67;2.73;;;;;;;;;;5051230;28;20315;-61
2023/03/28 01:24:55;;;;;;;17.80;2.93;;;;;;;;;;5051306;28;20315;-60
2023/03/28 01:27:26;;;;;;;15.37;2.50;;;;;;;;;;5051450;28;20506;-60
2023/03/28 01:30:01;;;;;;;24.30;3.50;;;;;;;;;;5050576;28;20303;-60
2023/03/28 01:33:00;;;;;;;21.63;3.83;;;;;;;;;;5051342;28;20350;-60
2023/03/28 01:35:29;;;;;;;14.93;4.10;;;;;;;;;;5019946;28;20296;-60
2023/03/28 01:38:17;;;;;;;18.10;2.67;;;;;;;;;;5047558;28;20317;-60
2023/03/28 01:41:01;;;;;;;14.93;5.40;;;;;;;;;;5031818;28;20876;-61
2023/03/28 01:43:53;;;;;;;18.27;3.63;;;;;;;;;;5043427;28;20287;-60
2023/03/28 01:46:29;;;;;;;16.87;2.30;;;;;;;;;;5050678;28;20309;-60
2023/03/28 01:49:09;;;;;;;17.27;2.97;;;;;;;;;;5050363;28;20673;-60
2023/03/28 01:51:48;;;;;;;14.03;2.90;;;;;;;;;;5052087;28;20372;-60
2023/03/28 01:54:14;;;;;;;16.10;3.13;;;;;;;;;;5051774;28;20291;-60
2023/03/28 01:56:40;;;;;;;19.20;3.33;;;;;;;;;;5051626;28;20291;-60
2023/03/28 01:59:06;;;;;;;17.93;2.47;;;;;;;;;;5051785;28;20289;-60
2023/03/28 02:01:55;;;;;;;16.30;4.13;;;;;;;;;;5051583;28;20048;-60
2023/03/28 02:04:23;;;;;;;11.07;3.53;;;;;;;;;;5048690;28;20366;-60
2023/03/28 02:06:49;;;;;;;15.83;2.70;;;;;;;;;;5051660;28;20291;-58
2023/03/28 02:09:17;;;;;;;15.63;2.90;;;;;;;;;;5051364;28;20283;-60
2023/03/28 02:11:43;;;;;;;17.40;3.00;;;;;;;;;;5055717;28;20279;-58
2023/03/28 02:14:11;;;;;;;17.20;5.10;;;;;;;;;;5071562;28;20290;-58
2023/03/28 02:16:41;;;;;;;13.93;3.00;;;;;;;;;;5071526;28;20363;-58
2023/03/28 02:19:09;;;;;;;18.00;2.87;;;;;;;;;;5070937;28;20764;-58
2023/03/28 02:21:42;;;;;;;28.00;4.93;;;;;;;;;;5071131;28;20282;-58
2023/03/28 02:24:11;;;;;;;17.23;2.85;;;;;;;;;;5071464;28;20287;-58
2023/03/28 02:26:37;;;;;;;17.07;3.40;;;;;;;;;;5070566;28;20095;-59
2023/03/28 02:29:05;;;;;;;27.37;5.77;;;;;;;;;;5062915;28;20295;-59
2023/03/28 02:31:31;;;;;;;21.13;2.87;;;;;;;;;;5052667;28;20280;-58
2023/03/28 02:33:57;;;;;;;9.77;3.17;;;;;;;;;;5050951;28;20371;-59
2023/03/28 02:36:42;;;;;;;21.33;3.43;;;;;;;;;;5049106;28;20772;-60
2023/03/28 02:39:26;;;;;;;22.33;2.73;;;;;;;;;;5038567;28;20327;-59
2023/03/28 02:42:11;;;;;;;27.80;5.37;;;;;;;;;;5043355;28;20389;-59
2023/03/28 02:44:37;;;;;;;21.23;3.53;;;;;;;;;;5030682;28;20296;-59
2023/03/28 02:47:06;;;;;;;24.63;2.80;;;;;;;;;;5039342;28;20365;-59
2023/03/28 02:49:39;;;;;;;11.20;2.60;;;;;;;;;;5034177;28;20677;-59
2023/03/28 02:52:10;;;;;;;18.23;2.70;;;;;;;;;;5049067;28;20390;-59
2023/03/28 02:54:55;;;;;;;24.07;3.10;;;;;;;;;;5050280;28;20068;-59
2023/03/28 02:57:30;;;;;;;13.70;3.03;;;;;;;;;;5039282;28;21190;-59
2023/03/28 02:59:58;;;;;;;21.07;3.03;;;;;;;;;;5048620;28;20387;-59
2023/03/28 03:02:24;;;;;;;16.00;2.80;;;;;;;;;;5051161;28;20296;-59
2023/03/28 03:04:51;;;;;;;18.07;3.27;;;;;;;;;;5050002;28;20709;-60
2023/03/28 03:07:17;;;;;;;20.57;4.63;;;;;;;;;;5050337;28;20345;-59
2023/03/28 03:09:44;;;;;;;16.13;4.30;;;;;;;;;;5050489;28;20957;-59
2023/03/28 03:12:11;;;;;;;22.47;2.97;;;;;;;;;;5050468;28;20658;-60
2023/03/28 03:14:37;;;;;;;26.07;4.03;;;;;;;;;;5049976;28;20291;-59
2023/03/28 03:17:04;;;;;;;25.17;3.57;;;;;;;;;;5049946;28;20295;-59
2023/03/28 03:19:31;;;;;;;21.90;3.40;;;;;;;;;;5050794;28;20307;-59
2023/03/28 03:21:58;;;;;;;22.77;3.07;;;;;;;;;;5050156;28;20292;-59
2023/03/28 03:24:24;;;;;;;22.33;3.10;;;;;;;;;;5049877;28;20342;-59
2023/03/28 03:26:50;;;;;;;17.10;3.27;;;;;;;;;;5049506;28;20296;-59
2023/03/28 03:29:16;;;;;;;22.73;2.93;;;;;;;;;;5050236;28;20296;-59
2023/03/28 03:31:42;;;;;;;13.73;3.00;;;;;;;;;;5050255;28;20290;-59
2023/03/28 03:34:08;;;;;;;15.07;3.03;;;;;;;;;;5050022;28;20275;-59
2023/03/28 03:36:34;;;;;;;18.57;3.33;;;;;;;;;;5052899;28;20318;-59
2023/03/28 03:39:00;;;;;;;22.30;3.20;;;;;;;;;;5069530;28;20724;-59
2023/03/28 03:41:26;;;;;;;17.73;3.50;;;;;;;;;;5069894;28;20047;-59
2023/03/28 03:43:52;;;;;;;14.93;3.00;;;;;;;;;;5069529;28;20094;-59
2023/03/28 03:46:18;;;;;;;18.70;3.00;;;;;;;;;;5068565;28;20330;-59
2023/03/28 03:48:44;;;;;;;21.80;3.57;;;;;;;;;;5068946;28;20775;-59
2023/03/28 03:51:10;;;;;;;17.03;3.87;;;;;;;;;;5068766;28;20293;-59
2023/03/28 03:53:38;;;;;;;17.17;2.57;;;;;;;;;;5067695;28;20287;-59
2023/03/28 03:56:05;;;;;;;23.60;3.13;;;;;;;;;;5054392;28;20361;-59
2023/03/28 03:58:31;;;;;;;14.43;2.60;;;;;;;;;;5049649;28;20307;-59
2023/03/28 04:00:57;;;;;;;11.37;2.97;;;;;;;;;;5048662;28;20338;-59
2023/03/28 04:03:24;;;;;;;15.23;3.50;;;;;;;;;;5048204;28;20303;-59
2023/03/28 04:05:51;;;;;;;17.27;2.43;;;;;;;;;;5047029;28;20805;-59
2023/03/28 04:08:18;;;;;;;13.77;3.23;;;;;;;;;;5047797;28;20307;-59
2023/03/28 04:10:45;;;;;;;22.27;4.03;;;;;;;;;;5029802;28;20313;-59
2023/03/28 04:13:11;;;;;;;23.80;3.67;;;;;;;;;;5046634;28;20321;-59
2023/03/28 04:15:37;;;;;;;21.97;3.57;;;;;;;;;;5048699;28;21155;-59
2023/03/28 04:18:04;;;;;;;15.67;2.80;;;;;;;;;;5047335;28;20041;-59
2023/03/28 04:20:30;;;;;;;19.77;3.97;;;;;;;;;;5049116;28;20045;-59
2023/03/28 04:22:59;;;;;;;9.30;2.83;;;;;;;;;;5049040;28;20331;-61
2023/03/28 04:25:25;;;;;;;21.57;3.50;;;;;;;;;;5049175;28;20307;-61
2023/03/28 04:27:53;;;;;;;13.00;2.93;;;;;;;;;;5049136;28;20996;-61
2023/03/28 04:30:19;;;;;;;13.07;3.23;;;;;;;;;;5049072;28;20808;-60
2023/03/28 04:32:48;;;;;;;18.50;3.47;;;;;;;;;;5048848;28;20287;-60
2023/03/28 04:35:15;;;;;;;20.03;3.10;;;;;;;;;;5048656;28;20336;-59
2023/03/28 04:37:41;;;;;;;15.40;3.00;;;;;;;;;;5048713;28;20284;-58
2023/03/28 04:40:14;;;;;;;24.90;5.03;;;;;;;;;;5048871;28;20287;-58
2023/03/28 04:42:41;;;;;;;19.67;3.22;;;;;;;;;;5048085;28;20322;-58
2023/03/28 04:45:07;;;;;;;17.17;3.10;;;;;;;;;;5049457;28;20055;-58
2023/03/28 04:47:33;;;;;;;16.40;3.93;;;;;;;;;;5048997;28;20362;-60
2023/03/28 04:49:59;;;;;;;19.13;3.03;;;;;;;;;;5048696;28;20295;-58
2023/03/28 04:52:26;;;;;;;14.00;3.57;;;;;;;;;;5049059;28;20323;-58
2023/03/28 04:54:52;;;;;;;16.17;3.23;;;;;;;;;;5048288;28;20645;-58
2023/03/28 04:57:18;;;;;;;25.53;3.50;;;;;;;;;;5048951;28;20287;-59
2023/03/28 04:59:44;;;;;;;15.50;3.17;;;;;;;;;;5048540;28;20284;-59
2023/03/28 05:02:10;;;;;;;18.93;3.23;;;;;;;;;;5057361;28;20287;-59
2023/03/28 05:04:37;;;;;;;13.07;4.00;;;;;;;;;;5067477;28;20801;-59
2023/03/28 05:07:03;;;;;;;21.97;3.07;;;;;;;;;;5068461;28;20290;-59
2023/03/28 05:09:29;;;;;;;20.50;3.63;;;;;;;;;;5067451;28;20329;-59
2023/03/28 05:11:55;;;;;;;14.13;4.60;;;;;;;;;;5058441;28;20307;-59
2023/03/28 05:14:21;;;;;;;20.93;4.07;;;;;;;;;;5048304;28;20049;-58
2023/03/28 05:16:47;;;;;;;15.67;3.47;;;;;;;;;;5047835;28;20295;-59
2023/03/28 05:19:13;;;;;;;19.70;3.70;;;;;;;;;;5047930;28;20136;-59
2023/03/28 05:21:39;;;;;;;19.47;3.67;;;;;;;;;;5047670;28;20299;-59
2023/03/28 05:24:07;;;;;;;14.90;3.63;;;;;;;;;;5049856;28;20284;-59
2023/03/28 05:26:33;;;;;;;19.00;4.80;;;;;;;;;;5052174;28;20505;-59
2023/03/28 05:28:59;;;;;;;17.37;3.73;;;;;;;;;;5044229;28;20331;-60
2023/03/28 05:31:29;;;;;;;14.90;3.83;;;;;;;;;;5043197;28;20291;-59
2023/03/28 05:33:55;;;;;;;16.83;3.97;;;;;;;;;;5042966;28;20291;-60
2023/03/28 05:36:22;;;;;;;17.97;3.40;;;;;;;;;;5044367;28;20347;-60
2023/03/28 05:38:48;;;;;;;22.87;4.50;;;;;;;;;;5040355;28;20417;-61
2023/03/28 05:41:14;;;;;;;18.97;3.70;;;;;;;;;;5042493;28;20870;-59
2023/03/28 05:43:40;;;;;;;12.23;3.50;;;;;;;;;;5040845;28;20292;-60
2023/03/28 05:46:06;;;;;;;19.90;3.67;;;;;;;;;;5039077;28;20323;-59
2023/03/28 05:48:32;;;;;;;21.27;4.93;;;;;;;;;;5051566;28;20375;-60
2023/03/28 05:50:59;;;;;;;16.17;3.20;;;;;;;;;;5051046;28;20851;-60
2023/03/28 05:53:25;;;;;;;11.50;3.37;;;;;;;;;;5062122;28;20356;-60
2023/03/28 05:55:51;;;;;;;10.43;3.63;;;;;;;;;;5071679;28;20394;-60
2023/03/28 05:58:17;;;;;;;16.20;4.13;;;;;;;;;;5071223;28;20398;-61
2023/03/28 06:00:43;;;;;;;20.57;3.77;;;;;;;;;;5071250;28;20291;-59
2023/03/28 06:03:09;;;;;;;19.23;4.20;;;;;;;;;;5070067;28;20319;-60
2023/03/28 06:05:36;;;;;;;16.50;3.93;;;;;;;;;;5071367;28;20307;-60
2023/03/28 06:08:02;;;;;;;16.37;5.50;;;;;;;;;;5071324;28;20283;-60
2023/03/28 06:10:28;;;;;;;11.13;3.63;;;;;;;;;;5060291;28;20642;-61
2023/03/28 06:12:54;;;;;;;12.10;3.90;;;;;;;;;;5051045;28;20374;-60
2023/03/28 06:15:20;;;;;;;10.73;3.50;;;;;;;;;;5051493;28;20291;-59
2023/03/28 06:17:46;;;;;;;15.63;4.17;;;;;;;;;;5050847;28;20851;-60
2023/03/28 06:20:12;;;;;;;14.20;4.00;;;;;;;;;;5034902;28;20412;-60
2023/03/28 06:22:38;;;;;;;19.90;4.17;;;;;;;;;;5031324;28;20798;-60
2023/03/28 06:25:05;;;;;;;21.43;3.63;;;;;;;;;;5049288;28;20347;-60
2023/03/28 06:27:31;;;;;;;13.47;3.67;;;;;;;;;;5044676;28;20297;-60
2023/03/28 06:29:58;;;;;;;17.43;4.00;;;;;;;;;;5035369;28;20284;-60
2023/03/28 06:32:25;;;;;;;11.17;3.50;;;;;;;;;;5034749;28;20299;-60
2023/03/28 06:34:51;;;;;;;9.60;3.70;;;;;;;;;;5034239;28;20594;-61
2023/03/28 06:37:17;;;;;;;12.33;3.17;;;;;;;;;;5039496;28;20786;-61
2023/03/28 06:39:43;;;;;;;19.03;4.33;;;;;;;;;;5041617;28;21051;-60
2023/03/28 06:42:09;;;;;;;17.20;4.20;;;;;;;;;;5042540;28;20276;-60
2023/03/28 06:44:35;;;;;;;17.83;4.90;;;;;;;;;;5041318;28;20306;-61
2023/03/28 06:47:01;;;;;;;16.03;4.17;;;;;;;;;;5035991;28;20275;-61
2023/03/28 06:49:27;;;;;;;16.20;4.70;;;;;;;;;;5035230;28;20288;-61
2023/03/28 06:51:54;;;;;;;16.17;4.40;;;;;;;;;;5038986;28;20534;-60
2023/03/28 06:54:20;;;;;;;10.47;4.23;;;;;;;;;;5039514;28;20284;-61
2023/03/28 06:56:46;;;;;;;19.10;6.60;;;;;;;;;;5044535;28;20345;-61
2023/03/28 06:59:12;;;;;;;19.17;5.57;;;;;;;;;;5046710;28;20299;-60
2023/03/28 07:01:38;;;;;;;15.60;4.30;;;;;;;;;;5040923;28;20287;-61
2023/03/28 07:04:04;;;;;;;22.23;5.03;;;;;;;;;;5041923;28;20504;-61
2023/03/28 07:06:30;;;;;;;14.17;4.73;;;;;;;;;;5043688;28;20045;-62
2023/03/28 07:08:57;;;;;;;9.40;4.03;;;;;;;;;;5039420;28;20052;-61
2023/03/28 07:11:23;;;;;;;12.53;4.53;;;;;;;;;;5038255;28;20048;-62
2023/03/28 07:13:49;;;;;;;14.63;4.77;;;;;;;;;;5039900;28;20049;-59
2023/03/28 07:16:15;;;;;;;12.37;5.30;;;;;;;;;;5042113;28;20553;-62
2023/03/28 07:18:41;;;;;;;16.70;4.87;;;;;;;;;;5043342;28;20303;-61
2023/03/28 07:21:08;;;;;;;16.20;4.63;;;;;;;;;;5045225;28;20037;-62
2023/03/28 07:23:35;;;;;;;10.40;4.97;;;;;;;;;;5048896;28;20293;-60
2023/03/28 07:26:03;;;;;;;18.37;4.40;;;;;;;;;;5047743;28;20323;-61
2023/03/28 07:28:29;;;;;;;16.20;5.40;;;;;;;;;;5049343;28;20300;-62
2023/03/28 07:30:55;;;;;;;17.73;4.17;;;;;;;;;;5047560;28;20353;-61
2023/03/28 07:33:22;;;;;;;13.07;4.90;;;;;;;;;;5047142;28;20299;-61
2023/03/28 07:35:51;;;;;;;11.70;4.07;;;;;;;;;;5048721;28;20400;-61
2023/03/28 07:38:17;;;;;;;15.70;4.03;;;;;;;;;;5049026;28;20041;-61
2023/03/28 07:40:43;;;;;;;12.63;4.03;;;;;;;;;;5048549;28;20348;-61
2023/03/28 07:43:10;;;;;;;13.13;4.20;;;;;;;;;;5048409;28;20344;-61
2023/03/28 07:45:36;;;;;;;8.93;2.90;;;;;;;;;;5048819;28;20353;-61
2023/03/28 07:48:02;;;;;;;15.30;3.13;;;;;;;;;;5046877;28;20295;-61
2023/03/28 07:50:28;;;;;;;10.73;3.33;;;;;;;;;;5047839;28;20132;-60
2023/03/28 07:52:58;;;;;;;7.60;2.77;;;;;;;;;;5048522;28;20469;-60
2023/03/28 07:55:25;;;;;;;14.40;3.17;;;;;;;;;;5048812;28;20124;-60
2023/03/28 07:57:51;;;;;;;11.43;3.17;;;;;;;;;;5046649;28;20049;-61
2023/03/28 08:00:18;;;;;;;9.10;4.30;;;;;;;;;;5037137;28;20366;-61
2023/03/28 08:02:44;;;;;;;15.50;3.53;;;;;;;;;;5035320;28;20088;-61
2023/03/28 08:05:10;;;;;;;7.77;2.77;;;;;;;;;;5038791;28;20044;-61
2023/03/28 08:07:36;;;;;;;10.60;2.97;;;;;;;;;;5037588;28;20113;-61
2023/03/28 08:10:02;;;;;;;9.10;2.80;;;;;;;;;;5036768;28;20403;-61
2023/03/28 08:12:29;;;;;;;8.70;2.40;;;;;;;;;;5036160;28;20069;-61
2023/03/28 08:14:55;;;;;;;13.20;3.13;;;;;;;;;;5035966;28;20400;-61
2023/03/28 08:17:22;;;;;;;11.37;2.90;;;;;;;;;;5034483;28;20120;-61
2023/03/28 08:19:48;;;;;;;5.80;3.17;;;;;;;;;;5037893;28;20052;-61
2023/03/28 08:22:15;;;;;;;9.10;3.50;;;;;;;;;;5039155;28;20081;-61
2023/03/28 08:24:42;;;;;;;11.37;2.77;;;;;;;;;;5033740;28;20053;-61
2023/03/28 08:27:08;;;;;;;7.83;2.60;;;;;;;;;;5028641;28;20095;-61
2023/03/28 08:29:35;;;;;;;9.50;2.30;;;;;;;;;;5027887;28;20060;-61
2023/03/28 08:32:02;;;;;;;9.20;2.40;;;;;;;;;;5028623;28;20124;-61
2023/03/28 08:34:29;;;;;;;7.30;2.07;;;;;;;;;;5028394;28;20053;-61
2023/03/28 08:36:56;;;;;;;11.03;2.57;;;;;;;;;;5028386;28;20052;-61
2023/03/28 08:39:23;;;;;;;8.00;2.20;;;;;;;;;;5030744;28;20128;-61
2023/03/28 08:42:08;;;;;;;10.97;2.40;;;;;;;;;;5039002;28;20052;-61
2023/03/28 08:44:52;;;;;;;16.33;3.00;;;;;;;;;;5045070;28;20040;-61
2023/03/28 08:47:31;;;;;;;7.67;2.20;;;;;;;;;;5048298;28;20454;-61
2023/03/28 08:50:13;;;;;;;10.60;2.03;;;;;;;;;;5044740;28;20048;-61
2023/03/28 08:52:39;;;;;;;8.90;1.80;;;;;;;;;;5046533;28;20041;-61
2023/03/28 08:55:16;;;;;;;6.53;1.27;;;;;;;;;;5047006;28;20041;-61
2023/03/28 08:57:42;;;;;;;4.67;1.40;;;;;;;;;;5047109;28;20131;-61
2023/03/28 09:00:16;;;;;;;7.33;1.50;;;;;;;;;;5050843;28;20102;-61
2023/03/28 09:02:42;;;;;;;2.65;0.75;;;;;;;;;;5050841;28;20044;-61
2023/03/28 09:05:16;;;;;;;8.47;1.13;;;;;;;;;;5051978;28;20053;-61
2023/03/28 09:07:48;;;;;;;7.50;1.10;;;;;;;;;;5050302;28;20053;-61
2023/03/28 09:10:17;;;;;;;4.87;0.90;;;;;;;;;;5066235;28;20041;-61
2023/03/28 09:12:52;;;;;;;8.63;1.10;;;;;;;;;;5050384;28;20194;-61
2023/03/28 09:15:24;;;;;;;4.23;1.43;;;;;;;;;;5050389;28;20056;-61
2023/03/28 09:17:50;;;;;;;8.27;1.30;;;;;;;;;;5050556;28;20045;-60
2023/03/28 09:20:20;;;;;;;6.63;1.10;;;;;;;;;;5050504;28;20695;-61
2023/03/28 09:23:07;;;;;;;5.90;1.20;;;;;;;;;;5051831;28;20049;-60
2023/03/28 09:25:52;;;;;;;4.77;1.00;;;;;;;;;;5052165;28;20098;-60
2023/03/28 09:28:49;;;;;;;6.00;1.43;;;;;;;;;;5051969;28;20060;-60
2023/03/28 09:31:17;;;;;;;6.60;1.33;;;;;;;;;;5051318;28;20132;-60
2023/03/28 09:33:46;;;;;;;3.70;1.10;;;;;;;;;;5051241;28;20503;-60
2023/03/28 09:36:15;;;;;;;4.80;1.20;;;;;;;;;;5051858;28;20520;-60
2023/03/28 09:38:45;;;;;;;8.23;1.17;;;;;;;;;;5051535;28;21150;-61
2023/03/28 09:41:14;;;;;;;4.67;1.00;;;;;;;;;;5051739;28;20534;-60
2023/03/28 09:43:52;;;;;;;5.53;0.90;;;;;;;;;;5051496;28;20076;-60
2023/03/28 09:46:30;;;;;;;9.53;2.77;;;;;;;;;;5051621;28;20102;-60
2023/03/28 09:48:56;;;;;;;5.93;1.10;;;;;;;;;;5051309;28;20139;-60
2023/03/28 09:51:22;;;;;;;4.20;0.87;;;;;;;;;;5051361;28;20601;-60
2023/03/28 09:53:49;;;;;;;6.63;0.97;;;;;;;;;;5051156;28;20048;-60
2023/03/28 09:56:15;;;;;;;4.83;1.00;;;;;;;;;;5051400;28;20041;-60
2023/03/28 09:58:48;;;;;;;5.30;1.27;;;;;;;;;;5037228;28;20084;-60
2023/03/28 10:01:14;;;;;;;;;;;;;;;;;;5032095;28;20049;-60
2023/03/28 10:03:51;;;;;;;8.67;1.50;;;;;;;;;;5031331;28;19999;-60
2023/03/28 10:06:27;;;;;;;4.90;1.20;;;;;;;;;;5030946;28;20049;-61
2023/03/28 10:09:08;;;;;;;5.03;1.10;;;;;;;;;;5030734;28;20135;-60
2023/03/28 10:11:43;;;;;;;3.93;1.10;;;;;;;;;;5030669;28;20052;-60
2023/03/28 10:14:27;;;;;;;6.57;1.20;;;;;;;;;;5031448;28;20056;-60
2023/03/28 10:16:54;;;;;;;4.87;1.70;;;;;;;;;;5037063;28;20045;-61
2023/03/28 10:19:24;;;;;;;4.63;1.23;;;;;;;;;;5050095;28;20403;-59
2023/03/28 10:21:51;;;;;;;6.27;1.70;;;;;;;;;;5050881;28;20708;-59
2023/03/28 10:24:20;;;;;;;7.70;1.43;;;;;;;;;;5050854;28;20044;-59
2023/03/28 10:26:46;;;;;;;8.60;1.60;;;;;;;;;;5050889;28;20139;-60
2023/03/28 10:29:13;;;;;;;7.20;1.50;;;;;;;;;;5050418;28;20051;-59
2023/03/28 10:31:40;;;;;;;4.10;1.40;;;;;;;;;;5050671;28;20053;-59
2023/03/28 10:34:24;;;;;;;7.50;1.57;;;;;;;;;;5050450;28;20052;-60
2023/03/28 10:36:51;;;;;;;9.00;1.77;;;;;;;;;;5050523;28;20045;-59
2023/03/28 10:39:27;;;;;;;7.47;1.50;;;;;;;;;;5050595;28;20050;-59
2023/03/28 10:42:00;;;;;;;7.50;2.03;;;;;;;;;;5050159;28;20075;-59
2023/03/28 10:44:27;;;;;;;3.97;1.58;;;;;;;;;;5050322;28;20040;-60
2023/03/28 10:46:53;;;;;;;6.47;1.80;;;;;;;;;;5049592;28;20102;-60
2023/03/28 10:49:20;;;;;;;8.00;2.63;;;;;;;;;;5050389;28;20052;-59
2023/03/28 10:51:46;;;;;;;10.30;2.10;;;;;;;;;;5050259;28;20114;-60
2023/03/28 10:54:35;;;;;;;5.10;1.60;;;;;;;;;;5044085;28;20041;-59
2023/03/28 10:57:10;;;;;;;5.93;1.67;;;;;;;;;;5037828;28;20052;-59
2023/03/28 10:59:40;;;;;;;4.00;1.70;;;;;;;;;;5040767;28;20167;-59
2023/03/28 11:02:06;;;;;;;4.50;1.60;;;;;;;;;;5038789;28;20045;-61
2023/03/28 11:04:51;;;;;;;6.63;1.73;;;;;;;;;;5044555;28;20132;-59
2023/03/28 11:07:17;;;;;;;3.60;1.43;;;;;;;;;;5044179;28;20079;-59
2023/03/28 11:09:52;;;;;;;6.57;1.87;;;;;;;;;;5046984;28;20041;-59
2023/03/28 11:12:37;;;;;;;7.43;1.67;;;;;;;;;;5049679;28;20045;-59
2023/03/28 11:15:29;;;;;;;6.57;1.77;;;;;;;;;;5049861;28;20055;-60
2023/03/28 11:17:55;;;;;;;7.47;1.77;;;;;;;;;;5046414;28;20049;-59
2023/03/28 11:20:30;;;;;;;9.77;2.40;;;;;;;;;;5037878;28;20573;-59
2023/03/28 11:22:59;;;;;;;7.23;1.97;;;;;;;;;;5046898;28;20434;-60
2023/03/28 11:25:40;;;;;;;9.07;1.80;;;;;;;;;;5040239;28;20716;-59
2023/03/28 11:28:13;;;;;;;6.00;1.53;;;;;;;;;;5039203;28;20777;-59
2023/03/28 11:30:40;;;;;;;5.60;1.67;;;;;;;;;;5039106;28;20462;-59
2023/03/28 11:33:12;;;;;;;4.63;1.50;;;;;;;;;;5037679;28;20041;-59
2023/03/28 11:35:41;;;;;;;6.50;2.07;;;;;;;;;;5041523;28;20053;-59
2023/03/28 11:38:16;;;;;;;6.27;2.17;;;;;;;;;;5040649;28;20295;-59
2023/03/28 11:40:55;;;;;;;9.20;1.90;;;;;;;;;;5042114;28;20050;-59
2023/03/28 11:43:27;;;;;;;6.83;1.87;;;;;;;;;;5038044;28;20049;-59
2023/03/28 11:45:55;;;;;;;8.03;2.13;;;;;;;;;;5041604;28;20045;-59
2023/03/28 11:48:44;;;;;;;5.73;1.67;;;;;;;;;;5041783;28;20044;-60
2023/03/28 11:51:40;;;;;;;4.63;1.90;;;;;;;;;;5042002;28;20085;-59
2023/03/28 11:54:09;;;;;;;5.00;1.83;;;;;;;;;;5031800;28;20068;-59
2023/03/28 11:56:45;;;;;;;7.00;1.67;;;;;;;;;;5034537;28;20064;-59
2023/03/28 11:59:35;;;;;;;9.53;1.80;;;;;;;;;;5042784;28;20131;-59
2023/03/28 12:02:19;;;;;;;5.87;2.00;;;;;;;;;;5027930;28;20059;-59
2023/03/28 12:04:49;;;;;;;5.70;2.00;;;;;;;;;;5042777;28;20500;-59
2023/03/28 12:07:22;;;;;;;6.67;1.90;;;;;;;;;;5042305;28;20040;-59
2023/03/28 12:10:05;;;;;;;7.82;1.90;;;;;;;;;;5043002;28;20423;-59
2023/03/28 12:12:31;;;;;;;;;;;;;;;;;;5037579;28;20052;-59
2023/03/28 12:15:04;;;;;;;6.47;2.10;;;;;;;;;;5038928;28;19921;-59
2023/03/28 12:17:38;;;;;;;6.28;2.10;;;;;;;;;;5030368;28;20037;-59
2023/03/28 12:20:09;;;;;;;6.73;1.83;;;;;;;;;;5037866;28;20475;-59
2023/03/28 12:22:43;;;;;;;6.43;2.17;;;;;;;;;;5036141;28;20115;-59
2023/03/28 12:25:19;;;;;;;7.87;2.80;;;;;;;;;;5033026;28;20140;-60
2023/03/28 12:27:47;;;;;;;6.27;1.90;;;;;;;;;;5040291;28;20053;-59
2023/03/28 12:30:15;;;;;;;9.83;3.40;;;;;;;;;;5040847;28;20037;-59
2023/03/28 12:32:44;;;;;;;4.60;1.63;;;;;;;;;;5035927;28;20048;-59
2023/03/28 12:35:28;;;;;;;7.93;2.20;;;;;;;;;;5040340;28;20103;-59
2023/03/28 12:38:13;;;;;;;5.10;1.67;;;;;;;;;;5038493;28;20048;-59
2023/03/28 12:40:49;;;;;;;10.37;2.47;;;;;;;;;;5038049;28;20063;-59
2023/03/28 12:43:16;;;;;;;5.13;1.50;;;;;;;;;;5039500;28;20067;-59
2023/03/28 12:45:45;;;;;;;7.07;2.20;;;;;;;;;;5036780;28;20045;-59
2023/03/28 12:48:15;;;;;;;6.23;2.20;;;;;;;;;;5038258;28;20495;-59
2023/03/28 12:50:44;;;;;;;6.57;2.03;;;;;;;;;;5037438;28;20120;-59
2023/03/28 12:53:11;;;;;;;6.50;1.90;;;;;;;;;;5048248;28;20049;-59
2023/03/28 12:55:41;;;;;;;5.37;1.53;;;;;;;;;;5048444;28;20056;-59
2023/03/28 12:58:13;;;;;;;8.10;2.23;;;;;;;;;;5048475;28;20048;-59
2023/03/28 13:00:48;;;;;;;5.77;1.80;;;;;;;;;;5048083;28;20068;-60
2023/03/28 13:03:18;;;;;;;6.57;2.00;;;;;;;;;;5048639;28;20076;-59
2023/03/28 13:06:03;;;;;;;4.70;1.93;;;;;;;;;;5048021;28;20079;-59
2023/03/28 13:08:48;;;;;;;8.20;2.33;;;;;;;;;;5047990;28;20084;-58
2023/03/28 13:11:20;;;;;;;7.83;2.10;;;;;;;;;;5046937;28;20052;-59
2023/03/28 13:14:02;;;;;;;9.23;2.03;;;;;;;;;;5047796;28;20060;-59
2023/03/28 13:16:41;;;;;;;6.93;2.37;;;;;;;;;;5048551;28;20132;-60
2023/03/28 13:19:09;;;;;;;6.10;2.10;;;;;;;;;;5047870;28;20053;-60
2023/03/28 13:21:41;;;;;;;6.50;1.87;;;;;;;;;;5048354;28;20045;-60
2023/03/28 13:24:26;;;;;;;5.83;2.70;;;;;;;;;;5048126;28;20045;-60
2023/03/28 13:26:58;;;;;;;8.07;2.63;;;;;;;;;;5046240;28;20404;-60
2023/03/28 13:29:42;;;;;;;8.17;2.43;;;;;;;;;;5048025;28;20529;-60
2023/03/28 13:32:08;;;;;;;;;;;;;;;;;;5048541;28;20562;-60
2023/03/28 13:34:35;;;;;;;8.23;2.70;;;;;;;;;;5045647;28;20012;-60
2023/03/28 13:37:16;;;;;;;8.73;2.37;;;;;;;;;;5037585;28;20049;-60
2023/03/28 13:39:49;;;;;;;10.13;2.93;;;;;;;;;;5036586;28;20106;-60
2023/03/28 13:42:25;;;;;;;8.68;2.40;;;;;;;;;;5044614;28;20086;-60
2023/03/28 13:44:53;;;;;;;8.10;2.43;;;;;;;;;;5048697;28;20061;-60
2023/03/28 13:47:26;;;;;;;6.23;2.20;;;;;;;;;;5051512;28;20056;-60
2023/03/28 13:49:59;;;;;;;9.07;2.43;;;;;;;;;;5051532;28;20049;-60
2023/03/28 13:52:25;;;;;;;;;;;;;;;;;;5051464;28;20053;-60
2023/03/28 13:54:55;;;;;;;6.77;2.90;;;;;;;;;;5051207;28;20024;-59
2023/03/28 13:57:24;;;;;;;5.30;2.60;;;;;;;;;;5051618;28;20124;-60
2023/03/28 13:59:55;;;;;;;7.37;2.77;;;;;;;;;;5051211;28;20049;-59
2023/03/28 14:02:30;;;;;;;7.60;3.20;;;;;;;;;;5051286;28;20060;-59
2023/03/28 14:05:03;;;;;;;9.77;2.87;;;;;;;;;;5051069;28;20824;-60
2023/03/28 14:07:29;;;;;;;7.37;3.03;;;;;;;;;;5050952;28;20052;-59
2023/03/28 14:09:56;;;;;;;7.20;2.60;;;;;;;;;;5051449;28;20044;-60
2023/03/28 14:12:24;;;;;;;6.20;2.50;;;;;;;;;;5050908;28;20055;-60
2023/03/28 14:14:52;;;;;;;6.47;3.10;;;;;;;;;;5050982;28;20519;-59
2023/03/28 14:17:22;;;;;;;5.97;2.40;;;;;;;;;;5050926;28;20045;-60
2023/03/28 14:19:56;;;;;;;8.97;3.43;;;;;;;;;;5051367;28;20048;-60
2023/03/28 14:22:27;;;;;;;6.93;2.57;;;;;;;;;;5050280;28;20101;-60
2023/03/28 14:24:54;;;;;;;5.93;3.20;;;;;;;;;;5050725;28;20397;-60
2023/03/28 14:27:50;;;;;;;10.67;2.40;;;;;;;;;;5050965;28;20132;-60
2023/03/28 14:30:16;;;;;;;5.60;2.73;;;;;;;;;;5049986;28;20427;-60
2023/03/28 14:32:53;;;;;;;10.00;2.87;;;;;;;;;;5050523;28;20049;-60
2023/03/28 14:35:21;;;;;;;8.80;2.20;;;;;;;;;;5050282;28;20080;-60
2023/03/28 14:37:51;;;;;;;6.57;2.90;;;;;;;;;;5066478;28;20048;-60
2023/03/28 14:40:28;;;;;;;5.77;2.60;;;;;;;;;;5050615;28;20133;-60
2023/03/28 14:43:03;;;;;;;11.40;2.60;;;;;;;;;;5050498;28;20077;-60
2023/03/28 14:45:30;;;;;;;8.63;2.40;;;;;;;;;;5050507;28;20064;-60
2023/03/28 14:47:56;;;;;;;10.70;2.90;;;;;;;;;;5050235;28;20541;-60
2023/03/28 14:50:25;;;;;;;7.20;2.27;;;;;;;;;;5050533;28;20075;-61
2023/03/28 14:52:51;;;;;;;6.83;2.50;;;;;;;;;;5043683;28;20095;-60